Saltar para o conteúdo principal

Santarém, Fonte Boa

ID 1210734 · 39.2012, -8.7367 mapa

Última leitura · 2026-05-09 18:00 (Europe/Lisbon)

Temperatura
14.5 °C
Humidade
86 %
Pressão
1,007.2 hPa
Precipitação
0.9 mm
Radiação
787 W/m²
Velocidade do vento
18.4 km/h
Direcção do vento
S · Sul

Histórico de 24 horas

Hora (Europe/Lisbon) Temperatura Humidade Pressão Chuva Vento Direcção
2026-05-09 18:00 14.5 °C 86 % 1,007.2 0.9 mm 18.4 km/h S
2026-05-09 17:00 16.2 °C 74 % 1,006.0 0.2 mm 10.8 km/h SW
2026-05-09 16:00 17.4 °C 70 % 1,005.6 0.0 mm 26.6 km/h S
2026-05-09 15:00 18.2 °C 63 % 1,005.1 0.0 mm 30.2 km/h S
2026-05-09 14:00 18.7 °C 57 % 1,004.8 0.0 mm 35.3 km/h S
2026-05-09 13:00 18.1 °C 62 % 1,004.5 0.0 mm 34.6 km/h S
2026-05-09 12:00 16.4 °C 75 % 1,004.3 0.0 mm 26.3 km/h S
2026-05-09 11:00 15.7 °C 80 % 1,004.0 0.0 mm 22.0 km/h S
2026-05-09 10:00 14.1 °C 92 % 1,003.9 0.0 mm 9.0 km/h S
2026-05-09 09:00 13.1 °C 96 % 1,004.0 0.0 mm 8.3 km/h SE
2026-05-09 08:00 12.8 °C 96 % 1,004.2 2.1 mm 6.1 km/h SE
2026-05-09 07:00 12.8 °C 95 % 1,003.7 1.7 mm 11.9 km/h S
2026-05-09 06:00 12.6 °C 93 % 1,004.0 0.1 mm 5.4 km/h E
2026-05-09 05:00 12.5 °C 93 % 1,004.8 0.1 mm 8.3 km/h S
2026-05-09 04:00 12.7 °C 89 % 1,005.3 0.6 mm 8.6 km/h SW
2026-05-09 03:00 13.0 °C 84 % 1,006.0 0.1 mm 5.0 km/h SE
2026-05-09 02:00 13.1 °C 85 % 1,006.6 0.0 mm 13.3 km/h S
2026-05-09 01:00 13.3 °C 87 % 1,006.5 0.0 mm 14.0 km/h S
2026-05-09 00:00 13.5 °C 90 % 1,006.5 0.0 mm 11.5 km/h S
2026-05-08 23:00 13.1 °C 91 % 1,006.2 0.4 mm 19.1 km/h S
2026-05-08 22:00 13.7 °C 93 % 1,007.3 1.3 mm 11.2 km/h S
2026-05-08 21:00 14.1 °C 87 % 1,007.1 1.1 mm 11.9 km/h S
2026-05-08 20:00 17.3 °C 62 % 1,006.5 0.2 mm 18.4 km/h S
2026-05-08 19:00 18.5 °C 52 % 1,006.6 0.0 mm 14.8 km/h S